sensor_id;sensor_type;location;lat;lon;timestamp;P1;durP1;ratioP1;P2;durP2;ratioP2
71800;SDS011;59647;55.838;37.292;2023-07-24T00:00:18;5.63;;;2.45;;
71800;SDS011;59647;55.838;37.292;2023-07-24T00:02:44;3.95;;;2.50;;
71800;SDS011;59647;55.838;37.292;2023-07-24T00:05:09;6.93;;;3.15;;
71800;SDS011;59647;55.838;37.292;2023-07-24T00:07:35;6.28;;;2.47;;
71800;SDS011;59647;55.838;37.292;2023-07-24T00:10:01;2.78;;;1.88;;
71800;SDS011;59647;55.838;37.292;2023-07-24T00:12:31;5.85;;;2.88;;
71800;SDS011;59647;55.838;37.292;2023-07-24T00:14:57;3.17;;;1.92;;
71800;SDS011;59647;55.838;37.292;2023-07-24T00:17:22;7.38;;;2.50;;
71800;SDS011;59647;55.838;37.292;2023-07-24T00:19:48;4.07;;;2.30;;
71800;SDS011;59647;55.838;37.292;2023-07-24T00:22:14;4.78;;;2.63;;
71800;SDS011;59647;55.838;37.292;2023-07-24T00:24:40;3.78;;;2.28;;
71800;SDS011;59647;55.838;37.292;2023-07-24T00:27:05;7.78;;;2.20;;
71800;SDS011;59647;55.838;37.292;2023-07-24T00:29:31;5.40;;;2.47;;
71800;SDS011;59647;55.838;37.292;2023-07-24T00:31:57;4.53;;;2.33;;
71800;SDS011;59647;55.838;37.292;2023-07-24T00:34:23;5.32;;;2.70;;
71800;SDS011;59647;55.838;37.292;2023-07-24T00:36:49;5.72;;;3.13;;
71800;SDS011;59647;55.838;37.292;2023-07-24T00:39:14;5.65;;;2.67;;
71800;SDS011;59647;55.838;37.292;2023-07-24T00:41:40;9.35;;;2.67;;
71800;SDS011;59647;55.838;37.292;2023-07-24T00:44:06;4.20;;;2.38;;
71800;SDS011;59647;55.838;37.292;2023-07-24T00:46:32;3.65;;;2.03;;
71800;SDS011;59647;55.838;37.292;2023-07-24T00:48:58;3.70;;;2.03;;
71800;SDS011;59647;55.838;37.292;2023-07-24T00:51:26;4.80;;;1.73;;
71800;SDS011;59647;55.838;37.292;2023-07-24T00:53:56;6.28;;;2.65;;
71800;SDS011;59647;55.838;37.292;2023-07-24T00:56:22;5.43;;;2.65;;
71800;SDS011;59647;55.838;37.292;2023-07-24T00:58:48;4.05;;;2.25;;
71800;SDS011;59647;55.838;37.292;2023-07-24T01:01:14;3.05;;;1.92;;
71800;SDS011;59647;55.838;37.292;2023-07-24T01:03:40;6.05;;;1.90;;
71800;SDS011;59647;55.838;37.292;2023-07-24T01:06:09;6.75;;;2.30;;
71800;SDS011;59647;55.838;37.292;2023-07-24T01:08:34;3.83;;;2.15;;
71800;SDS011;59647;55.838;37.292;2023-07-24T01:11:03;5.00;;;2.67;;
71800;SDS011;59647;55.838;37.292;2023-07-24T01:13:32;9.25;;;2.83;;
71800;SDS011;59647;55.838;37.292;2023-07-24T01:16:09;5.97;;;2.00;;
71800;SDS011;59647;55.838;37.292;2023-07-24T01:18:35;5.00;;;2.08;;
71800;SDS011;59647;55.838;37.292;2023-07-24T01:21:02;4.95;;;2.30;;
71800;SDS011;59647;55.838;37.292;2023-07-24T01:26:00;9.20;;;2.58;;
71800;SDS011;59647;55.838;37.292;2023-07-24T01:28:27;5.55;;;2.78;;
71800;SDS011;59647;55.838;37.292;2023-07-24T01:30:53;7.03;;;1.90;;
71800;SDS011;59647;55.838;37.292;2023-07-24T01:33:19;4.47;;;2.00;;
71800;SDS011;59647;55.838;37.292;2023-07-24T01:35:48;4.38;;;2.20;;
71800;SDS011;59647;55.838;37.292;2023-07-24T01:38:16;6.78;;;2.30;;
71800;SDS011;59647;55.838;37.292;2023-07-24T01:40:42;3.17;;;2.30;;
71800;SDS011;59647;55.838;37.292;2023-07-24T01:43:08;3.63;;;2.55;;
71800;SDS011;59647;55.838;37.292;2023-07-24T01:45:33;8.43;;;2.35;;
71800;SDS011;59647;55.838;37.292;2023-07-24T01:47:59;6.30;;;2.50;;
71800;SDS011;59647;55.838;37.292;2023-07-24T01:50:26;4.63;;;2.30;;
71800;SDS011;59647;55.838;37.292;2023-07-24T01:52:52;6.20;;;2.78;;
71800;SDS011;59647;55.838;37.292;2023-07-24T01:55:17;4.10;;;2.33;;
71800;SDS011;59647;55.838;37.292;2023-07-24T01:57:44;6.53;;;2.40;;
71800;SDS011;59647;55.838;37.292;2023-07-24T02:00:10;4.03;;;2.30;;
71800;SDS011;59647;55.838;37.292;2023-07-24T02:02:36;3.70;;;2.10;;
71800;SDS011;59647;55.838;37.292;2023-07-24T02:05:01;5.63;;;2.10;;
71800;SDS011;59647;55.838;37.292;2023-07-24T02:07:31;4.15;;;2.38;;
71800;SDS011;59647;55.838;37.292;2023-07-24T02:09:57;4.38;;;2.33;;
71800;SDS011;59647;55.838;37.292;2023-07-24T02:12:23;4.97;;;2.08;;
71800;SDS011;59647;55.838;37.292;2023-07-24T02:14:49;6.90;;;2.42;;
71800;SDS011;59647;55.838;37.292;2023-07-24T02:17:18;5.07;;;2.05;;
71800;SDS011;59647;55.838;37.292;2023-07-24T02:19:44;2.97;;;1.90;;
71800;SDS011;59647;55.838;37.292;2023-07-24T02:22:10;6.47;;;2.10;;
71800;SDS011;59647;55.838;37.292;2023-07-24T02:24:36;6.03;;;2.17;;
71800;SDS011;59647;55.838;37.292;2023-07-24T02:27:01;6.47;;;2.38;;
71800;SDS011;59647;55.838;37.292;2023-07-24T02:29:31;6.00;;;2.20;;
71800;SDS011;59647;55.838;37.292;2023-07-24T02:31:57;7.22;;;2.13;;
71800;SDS011;59647;55.838;37.292;2023-07-24T02:34:22;3.03;;;1.83;;
71800;SDS011;59647;55.838;37.292;2023-07-24T02:36:52;4.30;;;2.58;;
71800;SDS011;59647;55.838;37.292;2023-07-24T02:39:18;7.30;;;3.42;;
71800;SDS011;59647;55.838;37.292;2023-07-24T02:41:43;9.43;;;4.82;;
71800;SDS011;59647;55.838;37.292;2023-07-24T02:44:09;8.77;;;3.40;;
71800;SDS011;59647;55.838;37.292;2023-07-24T02:46:34;3.65;;;2.13;;
71800;SDS011;59647;55.838;37.292;2023-07-24T02:49:01;8.23;;;2.88;;
71800;SDS011;59647;55.838;37.292;2023-07-24T02:51:27;4.15;;;2.40;;
71800;SDS011;59647;55.838;37.292;2023-07-24T02:53:53;4.97;;;2.10;;
71800;SDS011;59647;55.838;37.292;2023-07-24T02:56:19;5.18;;;2.05;;
71800;SDS011;59647;55.838;37.292;2023-07-24T02:58:46;6.05;;;2.10;;
71800;SDS011;59647;55.838;37.292;2023-07-24T03:01:13;4.20;;;1.73;;
71800;SDS011;59647;55.838;37.292;2023-07-24T03:03:40;3.60;;;1.95;;
71800;SDS011;59647;55.838;37.292;2023-07-24T03:06:06;6.65;;;2.50;;
71800;SDS011;59647;55.838;37.292;2023-07-24T03:08:32;5.25;;;1.60;;
71800;SDS011;59647;55.838;37.292;2023-07-24T03:10:58;6.15;;;2.28;;
71800;SDS011;59647;55.838;37.292;2023-07-24T03:13:26;11.85;;;5.10;;
71800;SDS011;59647;55.838;37.292;2023-07-24T03:15:53;7.07;;;3.35;;
71800;SDS011;59647;55.838;37.292;2023-07-24T03:18:19;6.78;;;2.38;;
71800;SDS011;59647;55.838;37.292;2023-07-24T03:20:45;4.78;;;2.97;;
71800;SDS011;59647;55.838;37.292;2023-07-24T03:23:10;4.88;;;2.88;;
71800;SDS011;59647;55.838;37.292;2023-07-24T03:25:36;5.75;;;2.05;;
71800;SDS011;59647;55.838;37.292;2023-07-24T03:28:02;5.53;;;2.00;;
71800;SDS011;59647;55.838;37.292;2023-07-24T03:30:29;4.28;;;2.03;;
71800;SDS011;59647;55.838;37.292;2023-07-24T03:32:54;3.80;;;2.28;;
71800;SDS011;59647;55.838;37.292;2023-07-24T03:35:20;7.10;;;2.53;;
71800;SDS011;59647;55.838;37.292;2023-07-24T03:37:46;5.43;;;2.15;;
71800;SDS011;59647;55.838;37.292;2023-07-24T03:40:11;3.33;;;1.88;;
71800;SDS011;59647;55.838;37.292;2023-07-24T03:42:37;2.83;;;1.83;;
71800;SDS011;59647;55.838;37.292;2023-07-24T03:45:03;3.80;;;1.95;;
71800;SDS011;59647;55.838;37.292;2023-07-24T03:47:31;5.80;;;1.85;;
71800;SDS011;59647;55.838;37.292;2023-07-24T03:49:56;7.03;;;2.03;;
71800;SDS011;59647;55.838;37.292;2023-07-24T03:52:22;7.78;;;1.95;;
71800;SDS011;59647;55.838;37.292;2023-07-24T03:54:47;3.53;;;1.90;;
71800;SDS011;59647;55.838;37.292;2023-07-24T03:57:13;4.90;;;1.85;;
71800;SDS011;59647;55.838;37.292;2023-07-24T03:59:39;3.53;;;1.90;;
71800;SDS011;59647;55.838;37.292;2023-07-24T04:02:04;7.30;;;2.00;;
71800;SDS011;59647;55.838;37.292;2023-07-24T04:04:30;4.60;;;2.08;;
71800;SDS011;59647;55.838;37.292;2023-07-24T04:06:56;4.53;;;1.88;;
71800;SDS011;59647;55.838;37.292;2023-07-24T04:09:22;3.28;;;1.70;;
71800;SDS011;59647;55.838;37.292;2023-07-24T04:11:47;4.65;;;1.77;;
71800;SDS011;59647;55.838;37.292;2023-07-24T04:14:13;6.60;;;2.17;;
71800;SDS011;59647;55.838;37.292;2023-07-24T04:16:39;6.85;;;2.15;;
71800;SDS011;59647;55.838;37.292;2023-07-24T04:19:04;4.50;;;1.95;;
71800;SDS011;59647;55.838;37.292;2023-07-24T04:21:30;5.15;;;2.72;;
71800;SDS011;59647;55.838;37.292;2023-07-24T04:23:56;6.82;;;1.75;;
71800;SDS011;59647;55.838;37.292;2023-07-24T04:26:22;3.20;;;1.98;;
71800;SDS011;59647;55.838;37.292;2023-07-24T04:28:47;5.20;;;1.58;;
71800;SDS011;59647;55.838;37.292;2023-07-24T04:31:13;3.83;;;2.10;;
71800;SDS011;59647;55.838;37.292;2023-07-24T04:33:39;3.90;;;1.95;;
71800;SDS011;59647;55.838;37.292;2023-07-24T04:36:04;4.50;;;1.95;;
71800;SDS011;59647;55.838;37.292;2023-07-24T04:38:30;4.50;;;1.85;;
71800;SDS011;59647;55.838;37.292;2023-07-24T04:40:56;5.45;;;1.90;;
71800;SDS011;59647;55.838;37.292;2023-07-24T04:43:22;2.78;;;1.50;;
71800;SDS011;59647;55.838;37.292;2023-07-24T04:45:47;3.72;;;1.80;;
71800;SDS011;59647;55.838;37.292;2023-07-24T04:48:13;3.80;;;1.45;;
71800;SDS011;59647;55.838;37.292;2023-07-24T04:50:38;3.05;;;1.50;;
71800;SDS011;59647;55.838;37.292;2023-07-24T04:53:04;2.78;;;1.85;;
71800;SDS011;59647;55.838;37.292;2023-07-24T04:55:30;6.60;;;1.70;;
71800;SDS011;59647;55.838;37.292;2023-07-24T04:57:55;3.83;;;1.90;;
71800;SDS011;59647;55.838;37.292;2023-07-24T05:00:21;5.53;;;1.85;;
71800;SDS011;59647;55.838;37.292;2023-07-24T05:02:46;2.90;;;1.63;;
71800;SDS011;59647;55.838;37.292;2023-07-24T05:05:12;4.60;;;1.73;;
71800;SDS011;59647;55.838;37.292;2023-07-24T05:07:39;8.88;;;1.70;;
71800;SDS011;59647;55.838;37.292;2023-07-24T05:10:06;6.15;;;1.95;;
71800;SDS011;59647;55.838;37.292;2023-07-24T05:12:32;5.07;;;1.92;;
71800;SDS011;59647;55.838;37.292;2023-07-24T05:14:58;3.88;;;1.55;;
71800;SDS011;59647;55.838;37.292;2023-07-24T05:17:23;3.50;;;1.80;;
71800;SDS011;59647;55.838;37.292;2023-07-24T05:19:49;2.50;;;1.38;;
71800;SDS011;59647;55.838;37.292;2023-07-24T05:22:14;8.63;;;2.03;;
71800;SDS011;59647;55.838;37.292;2023-07-24T05:24:40;8.55;;;1.60;;
71800;SDS011;59647;55.838;37.292;2023-07-24T05:27:06;7.97;;;1.88;;
71800;SDS011;59647;55.838;37.292;2023-07-24T05:29:32;2.35;;;1.50;;
71800;SDS011;59647;55.838;37.292;2023-07-24T05:31:58;5.47;;;1.92;;
71800;SDS011;59647;55.838;37.292;2023-07-24T05:34:25;3.15;;;1.80;;
71800;SDS011;59647;55.838;37.292;2023-07-24T05:36:50;3.72;;;1.83;;
71800;SDS011;59647;55.838;37.292;2023-07-24T05:39:16;3.22;;;1.75;;
71800;SDS011;59647;55.838;37.292;2023-07-24T05:41:41;3.20;;;1.80;;
71800;SDS011;59647;55.838;37.292;2023-07-24T05:44:07;3.42;;;1.40;;
71800;SDS011;59647;55.838;37.292;2023-07-24T05:46:33;3.13;;;1.30;;
71800;SDS011;59647;55.838;37.292;2023-07-24T05:48:58;6.95;;;1.50;;
71800;SDS011;59647;55.838;37.292;2023-07-24T05:51:27;4.00;;;1.80;;
71800;SDS011;59647;55.838;37.292;2023-07-24T05:53:53;6.15;;;1.85;;
71800;SDS011;59647;55.838;37.292;2023-07-24T05:56:18;4.88;;;1.58;;
71800;SDS011;59647;55.838;37.292;2023-07-24T05:58:44;3.22;;;1.70;;
71800;SDS011;59647;55.838;37.292;2023-07-24T06:01:10;3.95;;;1.52;;
71800;SDS011;59647;55.838;37.292;2023-07-24T06:03:36;4.63;;;1.70;;
71800;SDS011;59647;55.838;37.292;2023-07-24T06:06:01;5.32;;;1.38;;
71800;SDS011;59647;55.838;37.292;2023-07-24T06:08:27;2.60;;;1.45;;
71800;SDS011;59647;55.838;37.292;2023-07-24T06:10:53;4.15;;;1.75;;
71800;SDS011;59647;55.838;37.292;2023-07-24T06:13:19;4.65;;;1.83;;
71800;SDS011;59647;55.838;37.292;2023-07-24T06:15:46;2.88;;;1.67;;
71800;SDS011;59647;55.838;37.292;2023-07-24T06:18:12;4.50;;;1.50;;
71800;SDS011;59647;55.838;37.292;2023-07-24T06:20:38;5.13;;;1.65;;
71800;SDS011;59647;55.838;37.292;2023-07-24T06:23:04;4.75;;;1.50;;
71800;SDS011;59647;55.838;37.292;2023-07-24T06:25:30;5.40;;;1.48;;
71800;SDS011;59647;55.838;37.292;2023-07-24T06:27:56;3.28;;;1.73;;
71800;SDS011;59647;55.838;37.292;2023-07-24T06:30:22;2.42;;;1.50;;
71800;SDS011;59647;55.838;37.292;2023-07-24T06:32:47;3.08;;;1.48;;
71800;SDS011;59647;55.838;37.292;2023-07-24T06:35:13;6.82;;;1.80;;
71800;SDS011;59647;55.838;37.292;2023-07-24T06:37:39;3.15;;;1.35;;
71800;SDS011;59647;55.838;37.292;2023-07-24T06:40:05;3.00;;;1.50;;
71800;SDS011;59647;55.838;37.292;2023-07-24T06:42:31;3.72;;;1.77;;
71800;SDS011;59647;55.838;37.292;2023-07-24T06:44:57;2.95;;;1.67;;
71800;SDS011;59647;55.838;37.292;2023-07-24T06:47:22;2.83;;;1.63;;
71800;SDS011;59647;55.838;37.292;2023-07-24T06:49:48;4.25;;;1.90;;
71800;SDS011;59647;55.838;37.292;2023-07-24T06:52:14;6.25;;;1.90;;
71800;SDS011;59647;55.838;37.292;2023-07-24T06:54:39;8.32;;;1.80;;
71800;SDS011;59647;55.838;37.292;2023-07-24T06:57:05;2.92;;;1.75;;
71800;SDS011;59647;55.838;37.292;2023-07-24T06:59:31;3.20;;;1.75;;
71800;SDS011;59647;55.838;37.292;2023-07-24T07:01:56;3.55;;;1.70;;
71800;SDS011;59647;55.838;37.292;2023-07-24T07:04:22;4.85;;;1.83;;
71800;SDS011;59647;55.838;37.292;2023-07-24T07:06:47;2.05;;;1.30;;
71800;SDS011;59647;55.838;37.292;2023-07-24T07:09:13;3.90;;;1.50;;
71800;SDS011;59647;55.838;37.292;2023-07-24T07:11:39;5.35;;;1.40;;
71800;SDS011;59647;55.838;37.292;2023-07-24T07:14:04;4.25;;;1.38;;
71800;SDS011;59647;55.838;37.292;2023-07-24T07:16:30;3.60;;;1.30;;
71800;SDS011;59647;55.838;37.292;2023-07-24T07:18:56;3.47;;;1.60;;
71800;SDS011;59647;55.838;37.292;2023-07-24T07:21:21;3.30;;;1.25;;
71800;SDS011;59647;55.838;37.292;2023-07-24T07:23:47;7.70;;;1.70;;
71800;SDS011;59647;55.838;37.292;2023-07-24T07:26:13;4.53;;;1.23;;
71800;SDS011;59647;55.838;37.292;2023-07-24T07:28:38;2.88;;;1.55;;
71800;SDS011;59647;55.838;37.292;2023-07-24T07:31:04;3.72;;;1.40;;
71800;SDS011;59647;55.838;37.292;2023-07-24T07:33:30;5.38;;;1.20;;
71800;SDS011;59647;55.838;37.292;2023-07-24T07:35:55;2.28;;;1.40;;
71800;SDS011;59647;55.838;37.292;2023-07-24T07:38:21;6.32;;;1.50;;
71800;SDS011;59647;55.838;37.292;2023-07-24T07:40:49;4.78;;;1.40;;
71800;SDS011;59647;55.838;37.292;2023-07-24T07:43:15;3.38;;;1.50;;
71800;SDS011;59647;55.838;37.292;2023-07-24T07:45:41;6.13;;;1.30;;
71800;SDS011;59647;55.838;37.292;2023-07-24T07:48:06;6.13;;;1.52;;
71800;SDS011;59647;55.838;37.292;2023-07-24T07:50:32;7.43;;;1.65;;
71800;SDS011;59647;55.838;37.292;2023-07-24T07:52:57;3.30;;;1.50;;
71800;SDS011;59647;55.838;37.292;2023-07-24T07:55:23;3.22;;;1.77;;
71800;SDS011;59647;55.838;37.292;2023-07-24T07:57:49;3.58;;;1.70;;
71800;SDS011;59647;55.838;37.292;2023-07-24T08:00:15;4.45;;;1.50;;
71800;SDS011;59647;55.838;37.292;2023-07-24T08:02:40;8.73;;;1.30;;
71800;SDS011;59647;55.838;37.292;2023-07-24T08:05:07;2.75;;;1.40;;
71800;SDS011;59647;55.838;37.292;2023-07-24T08:07:33;3.53;;;1.20;;
71800;SDS011;59647;55.838;37.292;2023-07-24T08:09:59;5.82;;;1.52;;
71800;SDS011;59647;55.838;37.292;2023-07-24T08:12:25;3.13;;;1.55;;
71800;SDS011;59647;55.838;37.292;2023-07-24T08:14:50;9.55;;;1.88;;
71800;SDS011;59647;55.838;37.292;2023-07-24T08:17:16;5.85;;;1.40;;
71800;SDS011;59647;55.838;37.292;2023-07-24T08:19:42;3.20;;;1.10;;
71800;SDS011;59647;55.838;37.292;2023-07-24T08:22:07;3.65;;;1.67;;
71800;SDS011;59647;55.838;37.292;2023-07-24T08:24:34;4.45;;;1.50;;
71800;SDS011;59647;55.838;37.292;2023-07-24T08:26:59;5.35;;;1.70;;
71800;SDS011;59647;55.838;37.292;2023-07-24T08:29:25;5.20;;;1.85;;
71800;SDS011;59647;55.838;37.292;2023-07-24T08:31:51;3.42;;;1.40;;
71800;SDS011;59647;55.838;37.292;2023-07-24T08:34:16;6.20;;;1.88;;
71800;SDS011;59647;55.838;37.292;2023-07-24T08:36:42;4.78;;;2.15;;
71800;SDS011;59647;55.838;37.292;2023-07-24T08:39:07;3.25;;;1.58;;
71800;SDS011;59647;55.838;37.292;2023-07-24T08:41:33;2.60;;;1.58;;
71800;SDS011;59647;55.838;37.292;2023-07-24T08:44:00;4.35;;;1.50;;
71800;SDS011;59647;55.838;37.292;2023-07-24T08:46:25;3.22;;;1.30;;
71800;SDS011;59647;55.838;37.292;2023-07-24T08:48:52;4.05;;;1.70;;
71800;SDS011;59647;55.838;37.292;2023-07-24T08:51:18;3.17;;;1.77;;
71800;SDS011;59647;55.838;37.292;2023-07-24T08:53:44;3.90;;;1.90;;
71800;SDS011;59647;55.838;37.292;2023-07-24T08:56:11;3.60;;;1.70;;
71800;SDS011;59647;55.838;37.292;2023-07-24T08:58:38;2.47;;;1.45;;
71800;SDS011;59647;55.838;37.292;2023-07-24T09:01:07;4.25;;;1.75;;
71800;SDS011;59647;55.838;37.292;2023-07-24T09:03:33;4.97;;;2.05;;
71800;SDS011;59647;55.838;37.292;2023-07-24T09:05:59;4.80;;;2.05;;
71800;SDS011;59647;55.838;37.292;2023-07-24T09:08:33;2.83;;;1.98;;
71800;SDS011;59647;55.838;37.292;2023-07-24T09:10:59;2.72;;;1.73;;
71800;SDS011;59647;55.838;37.292;2023-07-24T09:13:25;5.78;;;1.73;;
71800;SDS011;59647;55.838;37.292;2023-07-24T09:15:51;6.50;;;1.73;;
71800;SDS011;59647;55.838;37.292;2023-07-24T09:18:17;5.78;;;2.65;;
71800;SDS011;59647;55.838;37.292;2023-07-24T09:20:44;7.88;;;2.20;;
71800;SDS011;59647;55.838;37.292;2023-07-24T09:23:10;5.65;;;2.13;;
71800;SDS011;59647;55.838;37.292;2023-07-24T09:25:37;3.67;;;2.00;;
71800;SDS011;59647;55.838;37.292;2023-07-24T09:30:36;5.35;;;2.50;;
71800;SDS011;59647;55.838;37.292;2023-07-24T09:33:01;3.97;;;2.40;;
71800;SDS011;59647;55.838;37.292;2023-07-24T09:35:27;6.55;;;2.72;;
71800;SDS011;59647;55.838;37.292;2023-07-24T09:38:03;5.28;;;2.42;;
71800;SDS011;59647;55.838;37.292;2023-07-24T09:40:36;5.22;;;2.40;;
71800;SDS011;59647;55.838;37.292;2023-07-24T09:43:02;5.25;;;2.45;;
71800;SDS011;59647;55.838;37.292;2023-07-24T09:45:28;4.93;;;2.40;;
71800;SDS011;59647;55.838;37.292;2023-07-24T09:47:54;3.72;;;2.20;;
71800;SDS011;59647;55.838;37.292;2023-07-24T09:50:22;3.78;;;2.53;;
71800;SDS011;59647;55.838;37.292;2023-07-24T09:52:48;4.47;;;2.55;;
71800;SDS011;59647;55.838;37.292;2023-07-24T09:55:29;7.03;;;3.03;;
71800;SDS011;59647;55.838;37.292;2023-07-24T09:57:55;4.60;;;3.00;;
71800;SDS011;59647;55.838;37.292;2023-07-24T10:00:22;9.65;;;3.53;;
71800;SDS011;59647;55.838;37.292;2023-07-24T10:02:48;6.25;;;3.03;;
71800;SDS011;59647;55.838;37.292;2023-07-24T10:05:14;3.85;;;2.33;;
71800;SDS011;59647;55.838;37.292;2023-07-24T10:07:40;4.38;;;2.40;;
71800;SDS011;59647;55.838;37.292;2023-07-24T10:10:06;4.20;;;2.05;;
71800;SDS011;59647;55.838;37.292;2023-07-24T10:12:32;3.55;;;2.40;;
71800;SDS011;59647;55.838;37.292;2023-07-24T10:14:58;4.85;;;1.85;;
71800;SDS011;59647;55.838;37.292;2023-07-24T10:17:34;3.90;;;2.20;;
71800;SDS011;59647;55.838;37.292;2023-07-24T10:20:04;4.68;;;2.00;;
71800;SDS011;59647;55.838;37.292;2023-07-24T10:22:30;2.90;;;1.65;;
71800;SDS011;59647;55.838;37.292;2023-07-24T10:24:55;6.45;;;2.15;;
71800;SDS011;59647;55.838;37.292;2023-07-24T10:27:25;2.97;;;1.80;;
71800;SDS011;59647;55.838;37.292;2023-07-24T10:29:58;4.18;;;2.08;;
71800;SDS011;59647;55.838;37.292;2023-07-24T10:32:24;5.05;;;2.45;;
71800;SDS011;59647;55.838;37.292;2023-07-24T10:35:23;3.08;;;1.83;;
71800;SDS011;59647;55.838;37.292;2023-07-24T10:37:43;3.67;;;2.15;;
71800;SDS011;59647;55.838;37.292;2023-07-24T10:40:18;5.18;;;1.92;;
71800;SDS011;59647;55.838;37.292;2023-07-24T10:42:44;3.45;;;1.88;;
71800;SDS011;59647;55.838;37.292;2023-07-24T10:45:10;4.00;;;2.20;;
71800;SDS011;59647;55.838;37.292;2023-07-24T10:47:36;4.43;;;2.08;;
71800;SDS011;59647;55.838;37.292;2023-07-24T10:50:02;5.18;;;2.20;;
71800;SDS011;59647;55.838;37.292;2023-07-24T10:52:32;4.88;;;2.10;;
71800;SDS011;59647;55.838;37.292;2023-07-24T10:55:01;5.05;;;2.30;;
71800;SDS011;59647;55.838;37.292;2023-07-24T10:57:32;6.03;;;3.35;;
71800;SDS011;59647;55.838;37.292;2023-07-24T10:59:58;4.25;;;2.22;;
71800;SDS011;59647;55.838;37.292;2023-07-24T11:02:25;3.85;;;2.20;;
71800;SDS011;59647;55.838;37.292;2023-07-24T11:04:50;5.35;;;2.60;;
71800;SDS011;59647;55.838;37.292;2023-07-24T11:07:16;10.18;;;2.25;;
71800;SDS011;59647;55.838;37.292;2023-07-24T11:09:42;6.85;;;2.60;;
71800;SDS011;59647;55.838;37.292;2023-07-24T11:12:15;5.93;;;3.03;;
71800;SDS011;59647;55.838;37.292;2023-07-24T11:14:46;7.00;;;2.92;;
71800;SDS011;59647;55.838;37.292;2023-07-24T11:17:11;3.78;;;2.33;;
71800;SDS011;59647;55.838;37.292;2023-07-24T11:19:37;4.18;;;2.30;;
71800;SDS011;59647;55.838;37.292;2023-07-24T11:22:03;4.25;;;2.47;;
71800;SDS011;59647;55.838;37.292;2023-07-24T11:24:29;11.35;;;3.00;;
71800;SDS011;59647;55.838;37.292;2023-07-24T11:26:54;6.15;;;2.70;;
71800;SDS011;59647;55.838;37.292;2023-07-24T11:29:20;4.60;;;2.58;;
71800;SDS011;59647;55.838;37.292;2023-07-24T11:31:46;4.47;;;2.50;;
71800;SDS011;59647;55.838;37.292;2023-07-24T11:34:12;5.53;;;3.10;;
71800;SDS011;59647;55.838;37.292;2023-07-24T11:36:37;4.65;;;2.75;;
71800;SDS011;59647;55.838;37.292;2023-07-24T11:39:03;4.63;;;2.53;;
71800;SDS011;59647;55.838;37.292;2023-07-24T11:41:29;4.47;;;2.83;;
71800;SDS011;59647;55.838;37.292;2023-07-24T11:43:54;5.00;;;3.38;;
71800;SDS011;59647;55.838;37.292;2023-07-24T11:46:27;3.65;;;2.50;;
71800;SDS011;59647;55.838;37.292;2023-07-24T11:48:53;5.30;;;2.88;;
71800;SDS011;59647;55.838;37.292;2023-07-24T11:51:21;4.68;;;2.78;;
71800;SDS011;59647;55.838;37.292;2023-07-24T11:53:46;5.45;;;2.90;;
71800;SDS011;59647;55.838;37.292;2023-07-24T11:56:19;7.07;;;3.10;;
71800;SDS011;59647;55.838;37.292;2023-07-24T11:58:45;5.75;;;3.55;;
71800;SDS011;59647;55.838;37.292;2023-07-24T12:01:13;5.20;;;3.22;;
71800;SDS011;59647;55.838;37.292;2023-07-24T12:03:39;5.55;;;3.03;;
71800;SDS011;59647;55.838;37.292;2023-07-24T12:06:06;6.38;;;3.13;;
71800;SDS011;59647;55.838;37.292;2023-07-24T12:08:39;4.88;;;3.03;;
71800;SDS011;59647;55.838;37.292;2023-07-24T12:11:04;6.05;;;3.63;;
71800;SDS011;59647;55.838;37.292;2023-07-24T12:13:30;6.32;;;3.33;;
71800;SDS011;59647;55.838;37.292;2023-07-24T12:15:57;8.98;;;3.40;;
71800;SDS011;59647;55.838;37.292;2023-07-24T12:18:23;5.38;;;3.15;;
71800;SDS011;59647;55.838;37.292;2023-07-24T12:20:48;5.30;;;3.05;;
71800;SDS011;59647;55.838;37.292;2023-07-24T12:23:14;5.60;;;3.20;;
71800;SDS011;59647;55.838;37.292;2023-07-24T12:25:39;4.47;;;2.40;;
71800;SDS011;59647;55.838;37.292;2023-07-24T12:28:05;4.82;;;2.95;;
71800;SDS011;59647;55.838;37.292;2023-07-24T12:30:31;6.97;;;3.40;;
71800;SDS011;59647;55.838;37.292;2023-07-24T12:32:56;8.10;;;3.53;;
71800;SDS011;59647;55.838;37.292;2023-07-24T12:35:23;7.78;;;3.35;;
71800;SDS011;59647;55.838;37.292;2023-07-24T12:37:49;5.10;;;2.72;;
71800;SDS011;59647;55.838;37.292;2023-07-24T12:40:14;5.65;;;3.17;;
71800;SDS011;59647;55.838;37.292;2023-07-24T12:42:40;4.43;;;2.60;;
71800;SDS011;59647;55.838;37.292;2023-07-24T12:45:06;5.78;;;2.75;;
71800;SDS011;59647;55.838;37.292;2023-07-24T12:47:33;5.97;;;2.80;;
71800;SDS011;59647;55.838;37.292;2023-07-24T12:50:00;7.05;;;3.47;;
71800;SDS011;59647;55.838;37.292;2023-07-24T12:52:26;8.15;;;4.03;;
71800;SDS011;59647;55.838;37.292;2023-07-24T12:54:51;5.28;;;3.60;;
71800;SDS011;59647;55.838;37.292;2023-07-24T12:57:17;5.75;;;3.15;;
71800;SDS011;59647;55.838;37.292;2023-07-24T12:59:43;6.72;;;3.38;;
71800;SDS011;59647;55.838;37.292;2023-07-24T13:02:09;12.93;;;3.45;;
71800;SDS011;59647;55.838;37.292;2023-07-24T13:04:35;5.15;;;2.72;;
71800;SDS011;59647;55.838;37.292;2023-07-24T13:07:01;5.20;;;3.03;;
71800;SDS011;59647;55.838;37.292;2023-07-24T13:09:27;7.10;;;3.80;;
71800;SDS011;59647;55.838;37.292;2023-07-24T13:11:53;6.07;;;3.33;;
71800;SDS011;59647;55.838;37.292;2023-07-24T13:14:22;5.43;;;3.05;;
71800;SDS011;59647;55.838;37.292;2023-07-24T13:16:49;4.18;;;2.60;;
71800;SDS011;59647;55.838;37.292;2023-07-24T13:19:15;6.65;;;3.28;;
71800;SDS011;59647;55.838;37.292;2023-07-24T13:21:41;12.13;;;3.70;;
71800;SDS011;59647;55.838;37.292;2023-07-24T13:24:08;6.30;;;3.33;;
71800;SDS011;59647;55.838;37.292;2023-07-24T13:26:34;4.47;;;3.28;;
71800;SDS011;59647;55.838;37.292;2023-07-24T13:29:03;7.82;;;3.03;;
71800;SDS011;59647;55.838;37.292;2023-07-24T13:31:28;5.32;;;3.10;;
71800;SDS011;59647;55.838;37.292;2023-07-24T13:33:54;5.88;;;2.75;;
71800;SDS011;59647;55.838;37.292;2023-07-24T13:36:20;8.35;;;3.30;;
71800;SDS011;59647;55.838;37.292;2023-07-24T13:38:45;13.50;;;4.30;;
71800;SDS011;59647;55.838;37.292;2023-07-24T13:41:11;5.63;;;3.10;;
71800;SDS011;59647;55.838;37.292;2023-07-24T13:43:36;6.80;;;4.03;;
71800;SDS011;59647;55.838;37.292;2023-07-24T13:46:02;6.82;;;3.45;;
71800;SDS011;59647;55.838;37.292;2023-07-24T13:48:28;7.10;;;4.07;;
71800;SDS011;59647;55.838;37.292;2023-07-24T13:50:59;5.95;;;3.00;;
71800;SDS011;59647;55.838;37.292;2023-07-24T13:53:25;5.68;;;3.60;;
71800;SDS011;59647;55.838;37.292;2023-07-24T13:55:51;6.05;;;3.83;;
71800;SDS011;59647;55.838;37.292;2023-07-24T13:58:17;5.88;;;3.42;;
71800;SDS011;59647;55.838;37.292;2023-07-24T14:00:42;5.50;;;3.28;;
71800;SDS011;59647;55.838;37.292;2023-07-24T14:03:09;9.98;;;3.80;;
71800;SDS011;59647;55.838;37.292;2023-07-24T14:05:35;4.57;;;3.03;;
71800;SDS011;59647;55.838;37.292;2023-07-24T14:08:04;7.60;;;3.65;;
71800;SDS011;59647;55.838;37.292;2023-07-24T14:10:30;5.68;;;3.80;;
71800;SDS011;59647;55.838;37.292;2023-07-24T14:12:56;7.97;;;3.53;;
71800;SDS011;59647;55.838;37.292;2023-07-24T14:15:21;6.25;;;4.05;;
71800;SDS011;59647;55.838;37.292;2023-07-24T14:17:47;6.13;;;4.18;;
71800;SDS011;59647;55.838;37.292;2023-07-24T14:20:13;6.30;;;3.83;;
71800;SDS011;59647;55.838;37.292;2023-07-24T14:22:39;6.07;;;3.85;;
71800;SDS011;59647;55.838;37.292;2023-07-24T14:25:05;6.57;;;3.70;;
71800;SDS011;59647;55.838;37.292;2023-07-24T14:27:33;8.73;;;3.92;;
71800;SDS011;59647;55.838;37.292;2023-07-24T14:29:59;5.70;;;3.67;;
71800;SDS011;59647;55.838;37.292;2023-07-24T14:32:25;6.82;;;3.15;;